< < Back
Terminal Aerodrome Forecast


Current Version              Previous Versions:   1  2  3  4  5  6  7  8  9  

Terminal Aerodrome Forecast

197
FTUS42 KGSP 021136
TAFGSP
TAF
KGSP 021136Z 0212/0312 23006KT 1SM BR OVC002
     FM021400 25006KT 2SM BR OVC004
     FM021500 28006KT P6SM OVC012
      TEMPO 0215/0216 4SM BR BKN006 OVC012
     FM021700 32005KT P6SM BKN030
     FM022000 03005KT P6SM BKN045
     FM030400 05006KT 4SM -RA BR OVC011=

Latest METAR

556
SAUS70 KWBC 021500 RRC
MTRGSP
METAR KGSP 021453Z 22004KT 5SM BR BKN003 10/09 A3024 RMK AO2 SLP240
T01000089 53002


USA.gov is the U.S. government's official web portal to all federal, state and local government web resources and services.